Bornholm — C4KF2 — position and weather

sailwx.info

Track history (hours):
 
Tides and Currents Weather Stations Pressure Air Temp Water Temp Dewpoint Dewpoint Depression Visibility Wind Speed Wind Dir Waves Ship Positions

Bornholm

Last reported at 2015-Feb-27 10:33 UTC. Time now 2015-Mar-06 04:03 UTC.
Position N 39°09' W 009°51'.

Length 118 m; draft 5.1 m.

Type: Cargo ship. MMSI: 212521000.

Date/timePositionNaut miles runAvg speedWind from/ knotsBaromVisibWave heightAir tempDewpointWater temp
2015-Feb-27 10:33N 39°09' W 009°51'1211.6
2015-Feb-27 09:31N 38°57' W 009°51'1111.6
2015-Feb-27 08:33N 38°45' W 009°51'1211.6
2015-Feb-27 07:33N 38°34' W 009°48'1211.9
2015-Feb-27 06:34N 38°23' W 009°45'1211.8
2015-Feb-27 05:32N 38°11' W 009°41'1211.8
2015-Feb-27 04:33N 37°59' W 009°37'1211.8
2015-Feb-27 03:33N 37°48' W 009°34'1211.9
2015-Feb-27 02:33N 37°36' W 009°30'6310.5
2015-Feb-26 20:33N 36°42' W 008°51'1211.4
2015-Feb-26 19:31N 36°38' W 008°37'1711.8
2015-Feb-26 18:03N 36°34' W 008°17'1212.6
2015-Feb-26 17:08N 36°30' W 008°03'12813.0
2015-Feb-26 07:16N 35°60' W 005°29'710.4
2015-Feb-26 06:33N 36°02' W 005°20'216 4.6
2015-Feb-24 07:31N 37°12' W 001°05'1110.9
2015-Feb-24 06:33N 37°19' W 000°55'1211.6
2015-Feb-24 05:33N 37°27' W 000°44'1211.6
2015-Feb-24 04:33N 37°34' W 000°33'1111.3
2015-Feb-24 03:33N 37°44' W 000°25'1211.9
2015-Feb-24 02:33N 37°53' W 000°16'1111.1
2015-Feb-24 01:33N 38°02' W 000°08'2 1.3
2015-Feb-24 00:24N 38°03' W 000°10'  
2015-Feb-20 17:07N 37°41' W 000°25'711.5
2015-Feb-20 16:32N 37°35' W 000°29'247 9.9
2015-Feb-19 15:33N 35°59' W 005°13'9 9.0
2015-Feb-19 14:33N 35°58' W 005°24'236 9.7
2015-Feb-18 14:14N 37°41' W 009°49'5012.9
2015-Feb-18 10:19N 38°30' W 010°03'1213.0
2015-Feb-18 09:23N 38°42' W 010°06'  
Track history (hours):
 
Tides and Currents Weather Stations Pressure Air Temp Water Temp Dewpoint Dewpoint Depression Visibility Wind Speed Wind Dir Waves Ship Positions

Bornholm

Last reported at 2015-Feb-27 10:33 UTC. Time now 2015-Mar-06 04:03 UTC.
Position N 39°09' W 009°51'.

Length 118 m; draft 5.1 m.

Type: Cargo ship. MMSI: 212521000.

Date/timePositionNaut miles runAvg speedWind from/ knotsBaromVisibWave heightAir tempDewpointWater temp
2015-Feb-27 10:33N 39°09' W 009°51'1211.6
2015-Feb-27 09:31N 38°57' W 009°51'1111.6
2015-Feb-27 08:33N 38°45' W 009°51'1211.6
2015-Feb-27 07:33N 38°34' W 009°48'1211.9
2015-Feb-27 06:34N 38°23' W 009°45'1211.8
2015-Feb-27 05:32N 38°11' W 009°41'1211.8
2015-Feb-27 04:33N 37°59' W 009°37'1211.8
2015-Feb-27 03:33N 37°48' W 009°34'1211.9
2015-Feb-27 02:33N 37°36' W 009°30'6310.5
2015-Feb-26 20:33N 36°42' W 008°51'1211.4
2015-Feb-26 19:31N 36°38' W 008°37'1711.8
2015-Feb-26 18:03N 36°34' W 008°17'1212.6
2015-Feb-26 17:08N 36°30' W 008°03'12813.0
2015-Feb-26 07:16N 35°60' W 005°29'710.4
2015-Feb-26 06:33N 36°02' W 005°20'216 4.6
2015-Feb-24 07:31N 37°12' W 001°05'1110.9
2015-Feb-24 06:33N 37°19' W 000°55'1211.6
2015-Feb-24 05:33N 37°27' W 000°44'1211.6
2015-Feb-24 04:33N 37°34' W 000°33'1111.3
2015-Feb-24 03:33N 37°44' W 000°25'1211.9
2015-Feb-24 02:33N 37°53' W 000°16'1111.1
2015-Feb-24 01:33N 38°02' W 000°08'2 1.3
2015-Feb-24 00:24N 38°03' W 000°10'  
2015-Feb-20 17:07N 37°41' W 000°25'711.5
2015-Feb-20 16:32N 37°35' W 000°29'247 9.9
2015-Feb-19 15:33N 35°59' W 005°13'9 9.0
2015-Feb-19 14:33N 35°58' W 005°24'236 9.7
2015-Feb-18 14:14N 37°41' W 009°49'5012.9
2015-Feb-18 10:19N 38°30' W 010°03'1213.0
2015-Feb-18 09:23N 38°42' W 010°06'  

Dump ship's entire track history